sensor_id;sensor_type;location;lat;lon;timestamp;P1;durP1;ratioP1;P2;durP2;ratioP2
24483;SDS011;12643;51.620;7.548;2023-04-03T00:01:44;4.93;;;2.15;;
24483;SDS011;12643;51.620;7.548;2023-04-03T00:04:12;7.95;;;2.25;;
24483;SDS011;12643;51.620;7.548;2023-04-03T00:06:40;5.07;;;1.65;;
24483;SDS011;12643;51.620;7.548;2023-04-03T00:09:08;6.28;;;2.10;;
24483;SDS011;12643;51.620;7.548;2023-04-03T00:11:37;5.60;;;1.88;;
24483;SDS011;12643;51.620;7.548;2023-04-03T00:14:06;3.67;;;1.85;;
24483;SDS011;12643;51.620;7.548;2023-04-03T00:16:36;3.75;;;1.70;;
24483;SDS011;12643;51.620;7.548;2023-04-03T00:19:04;3.70;;;1.90;;
24483;SDS011;12643;51.620;7.548;2023-04-03T00:21:32;5.57;;;1.45;;
24483;SDS011;12643;51.620;7.548;2023-04-03T00:24:01;5.40;;;2.03;;
24483;SDS011;12643;51.620;7.548;2023-04-03T00:26:29;6.78;;;1.90;;
24483;SDS011;12643;51.620;7.548;2023-04-03T00:28:59;3.05;;;1.40;;
24483;SDS011;12643;51.620;7.548;2023-04-03T00:31:28;4.57;;;1.55;;
24483;SDS011;12643;51.620;7.548;2023-04-03T00:33:57;3.75;;;1.50;;
24483;SDS011;12643;51.620;7.548;2023-04-03T00:36:25;6.95;;;1.80;;
24483;SDS011;12643;51.620;7.548;2023-04-03T00:38:54;5.15;;;2.35;;
24483;SDS011;12643;51.620;7.548;2023-04-03T00:41:22;3.17;;;1.40;;
24483;SDS011;12643;51.620;7.548;2023-04-03T00:43:51;4.32;;;2.30;;
24483;SDS011;12643;51.620;7.548;2023-04-03T00:46:20;5.55;;;2.25;;
24483;SDS011;12643;51.620;7.548;2023-04-03T00:48:48;5.22;;;1.70;;
24483;SDS011;12643;51.620;7.548;2023-04-03T00:51:17;3.95;;;1.83;;
24483;SDS011;12643;51.620;7.548;2023-04-03T00:53:50;5.47;;;2.35;;
24483;SDS011;12643;51.620;7.548;2023-04-03T00:56:23;4.60;;;1.85;;
24483;SDS011;12643;51.620;7.548;2023-04-03T00:58:53;8.05;;;2.45;;
24483;SDS011;12643;51.620;7.548;2023-04-03T01:01:26;6.60;;;1.77;;
24483;SDS011;12643;51.620;7.548;2023-04-03T01:06:24;4.40;;;1.95;;
24483;SDS011;12643;51.620;7.548;2023-04-03T01:08:56;10.23;;;2.33;;
24483;SDS011;12643;51.620;7.548;2023-04-03T01:11:26;4.55;;;2.03;;
24483;SDS011;12643;51.620;7.548;2023-04-03T01:13:54;6.72;;;1.88;;
24483;SDS011;12643;51.620;7.548;2023-04-03T01:16:22;8.52;;;2.15;;
24483;SDS011;12643;51.620;7.548;2023-04-03T01:18:52;8.95;;;2.47;;
24483;SDS011;12643;51.620;7.548;2023-04-03T01:24:37;6.32;;;2.17;;
24483;SDS011;12643;51.620;7.548;2023-04-03T01:29:37;7.07;;;2.05;;
24483;SDS011;12643;51.620;7.548;2023-04-03T01:32:09;3.20;;;1.67;;
24483;SDS011;12643;51.620;7.548;2023-04-03T01:34:38;6.53;;;2.10;;
24483;SDS011;12643;51.620;7.548;2023-04-03T01:37:06;6.35;;;1.98;;
24483;SDS011;12643;51.620;7.548;2023-04-03T01:39:34;5.32;;;1.83;;
24483;SDS011;12643;51.620;7.548;2023-04-03T01:42:03;2.72;;;1.98;;
24483;SDS011;12643;51.620;7.548;2023-04-03T01:44:33;11.95;;;2.28;;
24483;SDS011;12643;51.620;7.548;2023-04-03T01:47:01;2.80;;;1.58;;
24483;SDS011;12643;51.620;7.548;2023-04-03T01:49:33;5.78;;;2.15;;
24483;SDS011;12643;51.620;7.548;2023-04-03T01:54:31;5.07;;;1.75;;
24483;SDS011;12643;51.620;7.548;2023-04-03T01:57:00;4.85;;;2.28;;
24483;SDS011;12643;51.620;7.548;2023-04-03T01:59:29;6.78;;;2.17;;
24483;SDS011;12643;51.620;7.548;2023-04-03T02:01:58;8.48;;;1.98;;
24483;SDS011;12643;51.620;7.548;2023-04-03T02:04:26;4.45;;;1.83;;
24483;SDS011;12643;51.620;7.548;2023-04-03T02:06:55;7.00;;;2.05;;
24483;SDS011;12643;51.620;7.548;2023-04-03T02:09:24;6.53;;;2.20;;
24483;SDS011;12643;51.620;7.548;2023-04-03T02:11:56;6.68;;;1.98;;
24483;SDS011;12643;51.620;7.548;2023-04-03T02:14:25;7.30;;;1.52;;
24483;SDS011;12643;51.620;7.548;2023-04-03T02:16:53;6.72;;;2.20;;
24483;SDS011;12643;51.620;7.548;2023-04-03T02:19:21;7.47;;;2.78;;
24483;SDS011;12643;51.620;7.548;2023-04-03T02:21:49;3.67;;;2.10;;
24483;SDS011;12643;51.620;7.548;2023-04-03T02:24:19;6.97;;;2.13;;
24483;SDS011;12643;51.620;7.548;2023-04-03T02:26:46;5.82;;;1.90;;
24483;SDS011;12643;51.620;7.548;2023-04-03T02:29:17;5.40;;;1.88;;
24483;SDS011;12643;51.620;7.548;2023-04-03T02:31:48;7.35;;;2.13;;
24483;SDS011;12643;51.620;7.548;2023-04-03T02:34:17;7.60;;;2.50;;
24483;SDS011;12643;51.620;7.548;2023-04-03T02:36:45;6.55;;;2.40;;
24483;SDS011;12643;51.620;7.548;2023-04-03T02:39:13;6.93;;;1.60;;
24483;SDS011;12643;51.620;7.548;2023-04-03T02:41:42;3.55;;;1.90;;
24483;SDS011;12643;51.620;7.548;2023-04-03T02:44:12;10.65;;;2.50;;
24483;SDS011;12643;51.620;7.548;2023-04-03T02:46:43;8.15;;;2.28;;
24483;SDS011;12643;51.620;7.548;2023-04-03T02:49:13;6.90;;;2.13;;
24483;SDS011;12643;51.620;7.548;2023-04-03T02:51:43;6.30;;;2.22;;
24483;SDS011;12643;51.620;7.548;2023-04-03T02:54:12;4.05;;;1.98;;
24483;SDS011;12643;51.620;7.548;2023-04-03T02:56:44;6.82;;;2.30;;
24483;SDS011;12643;51.620;7.548;2023-04-03T02:59:12;7.10;;;1.95;;
24483;SDS011;12643;51.620;7.548;2023-04-03T03:01:40;6.60;;;2.00;;
24483;SDS011;12643;51.620;7.548;2023-04-03T03:04:08;5.90;;;2.88;;
24483;SDS011;12643;51.620;7.548;2023-04-03T03:06:36;4.53;;;2.33;;
24483;SDS011;12643;51.620;7.548;2023-04-03T03:09:06;8.63;;;1.98;;
24483;SDS011;12643;51.620;7.548;2023-04-03T03:11:34;4.90;;;2.33;;
24483;SDS011;12643;51.620;7.548;2023-04-03T03:14:06;8.32;;;2.20;;
24483;SDS011;12643;51.620;7.548;2023-04-03T03:16:34;6.88;;;2.28;;
24483;SDS011;12643;51.620;7.548;2023-04-03T03:19:04;3.72;;;1.98;;
24483;SDS011;12643;51.620;7.548;2023-04-03T03:21:33;6.90;;;2.35;;
24483;SDS011;12643;51.620;7.548;2023-04-03T03:24:02;8.07;;;3.03;;
24483;SDS011;12643;51.620;7.548;2023-04-03T03:26:31;7.55;;;2.10;;
24483;SDS011;12643;51.620;7.548;2023-04-03T03:28:59;5.50;;;1.83;;
24483;SDS011;12643;51.620;7.548;2023-04-03T03:31:28;6.53;;;2.38;;
24483;SDS011;12643;51.620;7.548;2023-04-03T03:34:01;6.05;;;2.05;;
24483;SDS011;12643;51.620;7.548;2023-04-03T03:36:30;5.82;;;2.33;;
24483;SDS011;12643;51.620;7.548;2023-04-03T03:38:59;5.53;;;2.28;;
24483;SDS011;12643;51.620;7.548;2023-04-03T03:41:30;7.72;;;2.08;;
24483;SDS011;12643;51.620;7.548;2023-04-03T03:43:59;7.35;;;2.05;;
24483;SDS011;12643;51.620;7.548;2023-04-03T03:46:26;6.32;;;2.22;;
24483;SDS011;12643;51.620;7.548;2023-04-03T03:48:55;5.65;;;2.00;;
24483;SDS011;12643;51.620;7.548;2023-04-03T03:51:24;6.00;;;2.83;;
24483;SDS011;12643;51.620;7.548;2023-04-03T03:53:52;5.07;;;2.05;;
24483;SDS011;12643;51.620;7.548;2023-04-03T03:56:20;4.50;;;1.92;;
24483;SDS011;12643;51.620;7.548;2023-04-03T03:58:49;8.80;;;2.42;;
24483;SDS011;12643;51.620;7.548;2023-04-03T04:01:18;12.18;;;2.33;;
24483;SDS011;12643;51.620;7.548;2023-04-03T04:03:49;6.53;;;2.22;;
24483;SDS011;12643;51.620;7.548;2023-04-03T04:06:19;6.25;;;2.15;;
24483;SDS011;12643;51.620;7.548;2023-04-03T04:08:48;7.07;;;2.35;;
24483;SDS011;12643;51.620;7.548;2023-04-03T04:11:17;5.97;;;2.75;;
24483;SDS011;12643;51.620;7.548;2023-04-03T04:13:46;7.15;;;2.30;;
24483;SDS011;12643;51.620;7.548;2023-04-03T04:16:15;4.15;;;1.92;;
24483;SDS011;12643;51.620;7.548;2023-04-03T04:18:44;5.78;;;2.13;;
24483;SDS011;12643;51.620;7.548;2023-04-03T04:21:13;6.18;;;2.47;;
24483;SDS011;12643;51.620;7.548;2023-04-03T04:23:42;8.05;;;2.63;;
24483;SDS011;12643;51.620;7.548;2023-04-03T04:26:13;4.47;;;2.25;;
24483;SDS011;12643;51.620;7.548;2023-04-03T04:28:41;6.72;;;2.15;;
24483;SDS011;12643;51.620;7.548;2023-04-03T04:31:09;6.47;;;2.25;;
24483;SDS011;12643;51.620;7.548;2023-04-03T04:33:37;7.13;;;2.20;;
24483;SDS011;12643;51.620;7.548;2023-04-03T04:36:05;5.35;;;2.03;;
24483;SDS011;12643;51.620;7.548;2023-04-03T04:38:36;6.60;;;2.65;;
24483;SDS011;12643;51.620;7.548;2023-04-03T04:41:04;7.65;;;2.50;;
24483;SDS011;12643;51.620;7.548;2023-04-03T04:43:32;6.55;;;2.28;;
24483;SDS011;12643;51.620;7.548;2023-04-03T04:46:00;8.10;;;3.10;;
24483;SDS011;12643;51.620;7.548;2023-04-03T04:48:29;6.97;;;2.13;;
24483;SDS011;12643;51.620;7.548;2023-04-03T04:51:00;9.73;;;2.40;;
24483;SDS011;12643;51.620;7.548;2023-04-03T04:53:32;6.68;;;2.55;;
24483;SDS011;12643;51.620;7.548;2023-04-03T04:56:03;10.63;;;2.75;;
24483;SDS011;12643;51.620;7.548;2023-04-03T04:58:32;5.22;;;2.20;;
24483;SDS011;12643;51.620;7.548;2023-04-03T05:01:01;11.07;;;2.60;;
24483;SDS011;12643;51.620;7.548;2023-04-03T05:03:30;11.18;;;3.20;;
24483;SDS011;12643;51.620;7.548;2023-04-03T05:05:58;11.75;;;4.97;;
24483;SDS011;12643;51.620;7.548;2023-04-03T05:08:26;6.20;;;2.90;;
24483;SDS011;12643;51.620;7.548;2023-04-03T05:10:58;7.03;;;2.67;;
24483;SDS011;12643;51.620;7.548;2023-04-03T05:13:26;5.57;;;2.67;;
24483;SDS011;12643;51.620;7.548;2023-04-03T05:15:56;6.70;;;3.53;;
24483;SDS011;12643;51.620;7.548;2023-04-03T05:18:26;9.60;;;3.05;;
24483;SDS011;12643;51.620;7.548;2023-04-03T05:20:54;9.90;;;3.40;;
24483;SDS011;12643;51.620;7.548;2023-04-03T05:23:21;8.90;;;3.10;;
24483;SDS011;12643;51.620;7.548;2023-04-03T05:25:51;8.77;;;2.70;;
24483;SDS011;12643;51.620;7.548;2023-04-03T05:28:21;11.90;;;3.08;;
24483;SDS011;12643;51.620;7.548;2023-04-03T05:30:52;8.75;;;2.65;;
24483;SDS011;12643;51.620;7.548;2023-04-03T05:33:25;10.88;;;3.80;;
24483;SDS011;12643;51.620;7.548;2023-04-03T05:35:54;8.90;;;3.42;;
24483;SDS011;12643;51.620;7.548;2023-04-03T05:38:22;11.80;;;2.80;;
24483;SDS011;12643;51.620;7.548;2023-04-03T05:40:49;9.27;;;3.03;;
24483;SDS011;12643;51.620;7.548;2023-04-03T05:43:18;5.88;;;2.97;;
24483;SDS011;12643;51.620;7.548;2023-04-03T05:45:56;8.18;;;2.83;;
24483;SDS011;12643;51.620;7.548;2023-04-03T05:48:24;8.52;;;2.95;;
24483;SDS011;12643;51.620;7.548;2023-04-03T05:50:53;9.80;;;3.00;;
24483;SDS011;12643;51.620;7.548;2023-04-03T05:53:27;7.03;;;3.25;;
24483;SDS011;12643;51.620;7.548;2023-04-03T05:55:56;9.48;;;3.20;;
24483;SDS011;12643;51.620;7.548;2023-04-03T05:58:25;10.15;;;3.08;;
24483;SDS011;12643;51.620;7.548;2023-04-03T06:00:53;8.88;;;3.03;;
24483;SDS011;12643;51.620;7.548;2023-04-03T06:03:22;5.85;;;2.53;;
24483;SDS011;12643;51.620;7.548;2023-04-03T06:05:52;7.28;;;2.30;;
24483;SDS011;12643;51.620;7.548;2023-04-03T06:08:20;4.88;;;2.30;;
24483;SDS011;12643;51.620;7.548;2023-04-03T06:10:50;10.13;;;2.85;;
24483;SDS011;12643;51.620;7.548;2023-04-03T06:13:18;6.65;;;2.30;;
24483;SDS011;12643;51.620;7.548;2023-04-03T06:15:47;8.60;;;3.28;;
24483;SDS011;12643;51.620;7.548;2023-04-03T06:18:16;12.48;;;3.10;;
24483;SDS011;12643;51.620;7.548;2023-04-03T06:20:43;6.90;;;2.90;;
24483;SDS011;12643;51.620;7.548;2023-04-03T06:23:12;13.13;;;2.65;;
24483;SDS011;12643;51.620;7.548;2023-04-03T06:25:40;8.77;;;3.05;;
24483;SDS011;12643;51.620;7.548;2023-04-03T06:28:10;8.32;;;2.90;;
24483;SDS011;12643;51.620;7.548;2023-04-03T06:30:38;11.30;;;4.20;;
24483;SDS011;12643;51.620;7.548;2023-04-03T06:33:10;6.85;;;2.83;;
24483;SDS011;12643;51.620;7.548;2023-04-03T06:35:40;5.53;;;2.65;;
24483;SDS011;12643;51.620;7.548;2023-04-03T06:38:09;7.60;;;3.22;;
24483;SDS011;12643;51.620;7.548;2023-04-03T06:40:39;12.35;;;2.95;;
24483;SDS011;12643;51.620;7.548;2023-04-03T06:43:07;8.43;;;2.83;;
24483;SDS011;12643;51.620;7.548;2023-04-03T06:45:35;10.82;;;3.72;;
24483;SDS011;12643;51.620;7.548;2023-04-03T06:48:04;6.35;;;3.13;;
24483;SDS011;12643;51.620;7.548;2023-04-03T06:50:35;8.88;;;2.65;;
24483;SDS011;12643;51.620;7.548;2023-04-03T06:55:33;7.22;;;2.90;;
24483;SDS011;12643;51.620;7.548;2023-04-03T06:58:02;7.25;;;2.67;;
24483;SDS011;12643;51.620;7.548;2023-04-03T07:00:32;12.30;;;3.05;;
24483;SDS011;12643;51.620;7.548;2023-04-03T07:03:02;9.60;;;2.92;;
24483;SDS011;12643;51.620;7.548;2023-04-03T07:08:03;12.80;;;2.65;;
24483;SDS011;12643;51.620;7.548;2023-04-03T07:10:31;10.02;;;2.42;;
24483;SDS011;12643;51.620;7.548;2023-04-03T07:12:59;11.88;;;2.30;;
24483;SDS011;12643;51.620;7.548;2023-04-03T07:15:27;6.47;;;2.42;;
24483;SDS011;12643;51.620;7.548;2023-04-03T07:17:55;7.43;;;2.70;;
24483;SDS011;12643;51.620;7.548;2023-04-03T07:20:23;8.73;;;2.45;;
24483;SDS011;12643;51.620;7.548;2023-04-03T07:22:54;6.80;;;2.88;;
24483;SDS011;12643;51.620;7.548;2023-04-03T07:25:22;8.68;;;2.47;;
24483;SDS011;12643;51.620;7.548;2023-04-03T07:27:50;11.13;;;2.90;;
24483;SDS011;12643;51.620;7.548;2023-04-03T07:30:21;10.85;;;3.20;;
24483;SDS011;12643;51.620;7.548;2023-04-03T07:32:50;4.80;;;2.28;;
24483;SDS011;12643;51.620;7.548;2023-04-03T07:35:18;10.23;;;2.92;;
24483;SDS011;12643;51.620;7.548;2023-04-03T07:37:46;11.30;;;2.90;;
24483;SDS011;12643;51.620;7.548;2023-04-03T07:40:16;8.18;;;2.20;;
24483;SDS011;12643;51.620;7.548;2023-04-03T07:42:44;9.55;;;2.70;;
24483;SDS011;12643;51.620;7.548;2023-04-03T07:45:12;4.10;;;1.98;;
24483;SDS011;12643;51.620;7.548;2023-04-03T07:47:41;6.47;;;2.22;;
24483;SDS011;12643;51.620;7.548;2023-04-03T07:50:09;4.60;;;2.13;;
24483;SDS011;12643;51.620;7.548;2023-04-03T07:52:37;6.72;;;2.05;;
24483;SDS011;12643;51.620;7.548;2023-04-03T07:55:07;6.30;;;1.92;;
24483;SDS011;12643;51.620;7.548;2023-04-03T07:57:37;5.38;;;1.70;;
24483;SDS011;12643;51.620;7.548;2023-04-03T08:00:06;7.90;;;2.00;;
24483;SDS011;12643;51.620;7.548;2023-04-03T08:02:35;6.53;;;2.03;;
24483;SDS011;12643;51.620;7.548;2023-04-03T08:05:03;6.05;;;2.15;;
24483;SDS011;12643;51.620;7.548;2023-04-03T08:07:32;9.05;;;2.00;;
24483;SDS011;12643;51.620;7.548;2023-04-03T08:10:00;9.73;;;2.35;;
24483;SDS011;12643;51.620;7.548;2023-04-03T08:12:27;6.85;;;2.00;;
24483;SDS011;12643;51.620;7.548;2023-04-03T08:15:00;15.27;;;3.08;;
24483;SDS011;12643;51.620;7.548;2023-04-03T08:17:28;4.85;;;1.90;;
24483;SDS011;12643;51.620;7.548;2023-04-03T08:19:56;7.20;;;1.98;;
24483;SDS011;12643;51.620;7.548;2023-04-03T08:22:24;6.18;;;1.83;;
24483;SDS011;12643;51.620;7.548;2023-04-03T08:24:52;6.00;;;1.85;;
24483;SDS011;12643;51.620;7.548;2023-04-03T08:27:21;7.57;;;2.30;;
24483;SDS011;12643;51.620;7.548;2023-04-03T08:29:49;8.75;;;2.55;;
24483;SDS011;12643;51.620;7.548;2023-04-03T08:32:19;5.93;;;1.65;;
24483;SDS011;12643;51.620;7.548;2023-04-03T08:34:47;3.28;;;1.70;;
24483;SDS011;12643;51.620;7.548;2023-04-03T08:37:15;8.30;;;1.65;;
24483;SDS011;12643;51.620;7.548;2023-04-03T08:39:44;6.32;;;1.65;;
24483;SDS011;12643;51.620;7.548;2023-04-03T08:42:15;4.32;;;1.58;;
24483;SDS011;12643;51.620;7.548;2023-04-03T08:44:47;5.97;;;1.60;;
24483;SDS011;12643;51.620;7.548;2023-04-03T08:47:25;4.13;;;1.80;;
24483;SDS011;12643;51.620;7.548;2023-04-03T08:50:00;6.45;;;1.88;;
24483;SDS011;12643;51.620;7.548;2023-04-03T08:52:35;5.78;;;1.60;;
24483;SDS011;12643;51.620;7.548;2023-04-03T08:55:07;3.88;;;1.52;;
24483;SDS011;12643;51.620;7.548;2023-04-03T08:57:46;4.80;;;1.35;;
24483;SDS011;12643;51.620;7.548;2023-04-03T09:00:17;5.10;;;1.60;;
24483;SDS011;12643;51.620;7.548;2023-04-03T09:02:51;4.90;;;2.03;;
24483;SDS011;12643;51.620;7.548;2023-04-03T09:07:58;6.65;;;1.70;;
24483;SDS011;12643;51.620;7.548;2023-04-03T09:10:32;4.95;;;1.70;;
24483;SDS011;12643;51.620;7.548;2023-04-03T09:13:03;6.60;;;2.22;;
24483;SDS011;12643;51.620;7.548;2023-04-03T09:15:40;5.70;;;1.70;;
24483;SDS011;12643;51.620;7.548;2023-04-03T09:18:15;4.13;;;1.65;;
24483;SDS011;12643;51.620;7.548;2023-04-03T09:20:51;4.38;;;1.60;;
24483;SDS011;12643;51.620;7.548;2023-04-03T09:23:28;4.78;;;1.38;;
24483;SDS011;12643;51.620;7.548;2023-04-03T09:26:02;6.38;;;1.63;;
24483;SDS011;12643;51.620;7.548;2023-04-03T09:28:35;6.85;;;1.55;;
24483;SDS011;12643;51.620;7.548;2023-04-03T09:31:12;6.53;;;1.60;;
24483;SDS011;12643;51.620;7.548;2023-04-03T09:33:50;5.60;;;1.70;;
24483;SDS011;12643;51.620;7.548;2023-04-03T09:36:38;5.00;;;1.45;;
24483;SDS011;12643;51.620;7.548;2023-04-03T09:39:09;2.55;;;1.50;;
24483;SDS011;12643;51.620;7.548;2023-04-03T09:41:42;3.58;;;1.30;;
24483;SDS011;12643;51.620;7.548;2023-04-03T09:44:29;3.40;;;1.40;;
24483;SDS011;12643;51.620;7.548;2023-04-03T09:47:16;6.90;;;1.58;;
24483;SDS011;12643;51.620;7.548;2023-04-03T09:49:49;5.03;;;1.42;;
24483;SDS011;12643;51.620;7.548;2023-04-03T09:52:18;6.38;;;1.38;;
24483;SDS011;12643;51.620;7.548;2023-04-03T09:54:48;6.35;;;1.60;;
24483;SDS011;12643;51.620;7.548;2023-04-03T09:57:18;3.70;;;1.23;;
24483;SDS011;12643;51.620;7.548;2023-04-03T09:59:48;6.85;;;1.58;;
24483;SDS011;12643;51.620;7.548;2023-04-03T10:02:29;3.33;;;1.58;;
24483;SDS011;12643;51.620;7.548;2023-04-03T10:05:23;4.57;;;1.30;;
24483;SDS011;12643;51.620;7.548;2023-04-03T10:08:07;4.13;;;1.73;;
24483;SDS011;12643;51.620;7.548;2023-04-03T10:10:37;2.63;;;1.55;;
24483;SDS011;12643;51.620;7.548;2023-04-03T10:13:07;3.47;;;1.38;;
24483;SDS011;12643;51.620;7.548;2023-04-03T10:15:39;4.28;;;1.50;;
24483;SDS011;12643;51.620;7.548;2023-04-03T10:18:16;3.30;;;1.48;;
24483;SDS011;12643;51.620;7.548;2023-04-03T10:20:58;5.97;;;1.30;;
24483;SDS011;12643;51.620;7.548;2023-04-03T10:23:32;4.35;;;1.20;;
24483;SDS011;12643;51.620;7.548;2023-04-03T10:26:09;4.55;;;1.33;;
24483;SDS011;12643;51.620;7.548;2023-04-03T10:28:45;6.28;;;1.25;;
24483;SDS011;12643;51.620;7.548;2023-04-03T10:31:21;7.57;;;1.50;;
24483;SDS011;12643;51.620;7.548;2023-04-03T10:33:56;2.75;;;1.10;;
24483;SDS011;12643;51.620;7.548;2023-04-03T10:36:36;4.65;;;1.20;;
24483;SDS011;12643;51.620;7.548;2023-04-03T10:39:15;3.65;;;1.20;;
24483;SDS011;12643;51.620;7.548;2023-04-03T10:41:55;4.15;;;1.10;;
24483;SDS011;12643;51.620;7.548;2023-04-03T10:44:30;5.68;;;1.15;;
24483;SDS011;12643;51.620;7.548;2023-04-03T10:47:06;3.40;;;1.20;;
24483;SDS011;12643;51.620;7.548;2023-04-03T10:49:45;2.97;;;1.10;;
24483;SDS011;12643;51.620;7.548;2023-04-03T10:52:22;5.80;;;1.50;;
24483;SDS011;12643;51.620;7.548;2023-04-03T10:54:56;4.22;;;1.52;;
24483;SDS011;12643;51.620;7.548;2023-04-03T10:57:34;7.35;;;1.63;;
24483;SDS011;12643;51.620;7.548;2023-04-03T11:00:03;4.82;;;1.10;;
24483;SDS011;12643;51.620;7.548;2023-04-03T11:02:36;2.50;;;1.00;;
24483;SDS011;12643;51.620;7.548;2023-04-03T11:05:15;2.42;;;0.98;;
24483;SDS011;12643;51.620;7.548;2023-04-03T11:07:53;3.08;;;1.02;;
24483;SDS011;12643;51.620;7.548;2023-04-03T11:10:25;8.30;;;2.00;;
24483;SDS011;12643;51.620;7.548;2023-04-03T11:13:01;6.43;;;1.10;;
24483;SDS011;12643;51.620;7.548;2023-04-03T11:15:36;6.00;;;1.02;;
24483;SDS011;12643;51.620;7.548;2023-04-03T11:18:06;4.25;;;0.90;;
24483;SDS011;12643;51.620;7.548;2023-04-03T11:20:37;2.85;;;1.27;;
24483;SDS011;12643;51.620;7.548;2023-04-03T11:23:15;3.78;;;1.52;;
24483;SDS011;12643;51.620;7.548;2023-04-03T11:25:49;3.13;;;1.08;;
24483;SDS011;12643;51.620;7.548;2023-04-03T11:28:19;7.30;;;1.55;;
24483;SDS011;12643;51.620;7.548;2023-04-03T11:30:48;3.63;;;1.10;;
24483;SDS011;12643;51.620;7.548;2023-04-03T11:33:24;2.50;;;1.20;;
24483;SDS011;12643;51.620;7.548;2023-04-03T11:36:03;3.28;;;1.20;;
24483;SDS011;12643;51.620;7.548;2023-04-03T11:38:37;3.33;;;1.00;;
24483;SDS011;12643;51.620;7.548;2023-04-03T11:41:09;3.95;;;1.27;;
24483;SDS011;12643;51.620;7.548;2023-04-03T11:43:40;1.50;;;1.00;;
24483;SDS011;12643;51.620;7.548;2023-04-03T11:48:48;3.20;;;1.30;;
24483;SDS011;12643;51.620;7.548;2023-04-03T12:00:47;4.40;;;1.30;;
24483;SDS011;12643;51.620;7.548;2023-04-03T12:03:32;6.07;;;1.70;;
24483;SDS011;12643;51.620;7.548;2023-04-03T12:09:27;1.83;;;1.10;;
24483;SDS011;12643;51.620;7.548;2023-04-03T12:12:00;5.65;;;1.15;;
24483;SDS011;12643;51.620;7.548;2023-04-03T12:14:45;3.38;;;1.08;;
24483;SDS011;12643;51.620;7.548;2023-04-03T12:17:18;3.45;;;1.15;;
24483;SDS011;12643;51.620;7.548;2023-04-03T12:19:52;3.70;;;1.10;;
24483;SDS011;12643;51.620;7.548;2023-04-03T12:22:21;3.55;;;1.83;;
24483;SDS011;12643;51.620;7.548;2023-04-03T12:24:49;1.95;;;0.90;;
24483;SDS011;12643;51.620;7.548;2023-04-03T12:27:27;3.75;;;1.13;;
24483;SDS011;12643;51.620;7.548;2023-04-03T12:30:03;1.58;;;1.05;;
24483;SDS011;12643;51.620;7.548;2023-04-03T12:32:51;5.45;;;1.23;;
24483;SDS011;12643;51.620;7.548;2023-04-03T12:35:37;2.58;;;1.02;;
24483;SDS011;12643;51.620;7.548;2023-04-03T12:41:18;3.10;;;1.10;;
24483;SDS011;12643;51.620;7.548;2023-04-03T12:44:03;4.40;;;1.20;;
24483;SDS011;12643;51.620;7.548;2023-04-03T12:46:45;3.28;;;1.40;;
24483;SDS011;12643;51.620;7.548;2023-04-03T12:51:58;3.70;;;0.90;;
24483;SDS011;12643;51.620;7.548;2023-04-03T12:54:27;3.22;;;1.15;;
24483;SDS011;12643;51.620;7.548;2023-04-03T12:57:11;3.38;;;1.45;;
24483;SDS011;12643;51.620;7.548;2023-04-03T12:59:44;2.47;;;1.02;;
24483;SDS011;12643;51.620;7.548;2023-04-03T13:02:23;2.83;;;1.30;;
24483;SDS011;12643;51.620;7.548;2023-04-03T13:04:52;3.63;;;1.00;;
24483;SDS011;12643;51.620;7.548;2023-04-03T13:07:26;3.47;;;0.73;;
24483;SDS011;12643;51.620;7.548;2023-04-03T13:10:00;1.13;;;0.77;;
24483;SDS011;12643;51.620;7.548;2023-04-03T13:12:30;4.43;;;1.23;;
24483;SDS011;12643;51.620;7.548;2023-04-03T13:15:11;2.70;;;0.98;;
24483;SDS011;12643;51.620;7.548;2023-04-03T13:17:43;3.22;;;1.20;;
24483;SDS011;12643;51.620;7.548;2023-04-03T13:20:19;2.65;;;1.17;;
24483;SDS011;12643;51.620;7.548;2023-04-03T13:22:52;5.10;;;1.08;;
24483;SDS011;12643;51.620;7.548;2023-04-03T13:25:23;5.03;;;1.35;;
24483;SDS011;12643;51.620;7.548;2023-04-03T13:27:53;3.73;;;1.60;;
24483;SDS011;12643;51.620;7.548;2023-04-03T13:30:28;4.05;;;1.50;;
24483;SDS011;12643;51.620;7.548;2023-04-03T13:32:59;3.85;;;1.20;;
24483;SDS011;12643;51.620;7.548;2023-04-03T13:35:30;4.60;;;1.30;;
24483;SDS011;12643;51.620;7.548;2023-04-03T13:38:04;2.03;;;1.17;;
24483;SDS011;12643;51.620;7.548;2023-04-03T13:40:35;4.43;;;1.30;;
24483;SDS011;12643;51.620;7.548;2023-04-03T13:43:17;2.75;;;1.30;;
24483;SDS011;12643;51.620;7.548;2023-04-03T13:46:02;3.92;;;1.48;;
24483;SDS011;12643;51.620;7.548;2023-04-03T13:48:37;3.10;;;1.30;;
24483;SDS011;12643;51.620;7.548;2023-04-03T13:51:15;2.28;;;1.30;;
24483;SDS011;12643;51.620;7.548;2023-04-03T13:53:46;2.63;;;1.30;;
24483;SDS011;12643;51.620;7.548;2023-04-03T13:56:18;4.40;;;1.13;;
24483;SDS011;12643;51.620;7.548;2023-04-03T13:58:53;4.18;;;1.25;;
24483;SDS011;12643;51.620;7.548;2023-04-03T14:01:34;6.88;;;1.85;;
24483;SDS011;12643;51.620;7.548;2023-04-03T14:04:13;3.78;;;1.25;;
24483;SDS011;12643;51.620;7.548;2023-04-03T14:06:44;5.13;;;1.58;;
24483;SDS011;12643;51.620;7.548;2023-04-03T14:09:14;2.47;;;1.20;;
24483;SDS011;12643;51.620;7.548;2023-04-03T14:11:43;5.95;;;1.55;;
24483;SDS011;12643;51.620;7.548;2023-04-03T14:14:13;3.97;;;1.77;;
24483;SDS011;12643;51.620;7.548;2023-04-03T14:16:45;3.92;;;1.17;;
24483;SDS011;12643;51.620;7.548;2023-04-03T14:19:16;5.13;;;1.50;;
24483;SDS011;12643;51.620;7.548;2023-04-03T14:21:47;4.47;;;1.70;;
24483;SDS011;12643;51.620;7.548;2023-04-03T14:24:16;6.88;;;1.85;;
24483;SDS011;12643;51.620;7.548;2023-04-03T14:26:45;6.25;;;2.22;;
24483;SDS011;12643;51.620;7.548;2023-04-03T14:29:14;4.35;;;1.55;;
24483;SDS011;12643;51.620;7.548;2023-04-03T14:31:44;3.42;;;1.27;;
24483;SDS011;12643;51.620;7.548;2023-04-03T14:34:15;3.63;;;1.30;;
24483;SDS011;12643;51.620;7.548;2023-04-03T14:36:44;5.95;;;2.03;;
24483;SDS011;12643;51.620;7.548;2023-04-03T14:39:15;6.80;;;1.40;;
24483;SDS011;12643;51.620;7.548;2023-04-03T14:41:45;5.80;;;1.48;;
24483;SDS011;12643;51.620;7.548;2023-04-03T14:44:13;3.88;;;1.50;;
24483;SDS011;12643;51.620;7.548;2023-04-03T14:46:42;3.60;;;1.20;;
24483;SDS011;12643;51.620;7.548;2023-04-03T14:49:12;2.88;;;1.60;;
24483;SDS011;12643;51.620;7.548;2023-04-03T14:51:42;5.22;;;1.55;;
24483;SDS011;12643;51.620;7.548;2023-04-03T14:54:12;4.80;;;1.65;;
24483;SDS011;12643;51.620;7.548;2023-04-03T14:56:50;3.80;;;1.92;;
24483;SDS011;12643;51.620;7.548;2023-04-03T14:59:20;5.38;;;1.80;;
24483;SDS011;12643;51.620;7.548;2023-04-03T15:04:20;6.28;;;2.72;;
24483;SDS011;12643;51.620;7.548;2023-04-03T15:06:48;5.82;;;2.25;;
24483;SDS011;12643;51.620;7.548;2023-04-03T15:09:19;5.40;;;1.58;;
24483;SDS011;12643;51.620;7.548;2023-04-03T15:11:49;2.63;;;1.35;;
24483;SDS011;12643;51.620;7.548;2023-04-03T15:14:18;4.00;;;1.50;;
24483;SDS011;12643;51.620;7.548;2023-04-03T15:16:46;2.03;;;1.52;;
24483;SDS011;12643;51.620;7.548;2023-04-03T15:19:16;5.63;;;1.48;;
24483;SDS011;12643;51.620;7.548;2023-04-03T15:21:45;5.55;;;1.40;;
24483;SDS011;12643;51.620;7.548;2023-04-03T15:24:16;2.75;;;1.30;;
24483;SDS011;12643;51.620;7.548;2023-04-03T15:26:45;6.20;;;1.70;;
24483;SDS011;12643;51.620;7.548;2023-04-03T15:29:13;4.38;;;1.60;;
24483;SDS011;12643;51.620;7.548;2023-04-03T15:31:41;4.03;;;1.50;;
24483;SDS011;12643;51.620;7.548;2023-04-03T15:34:09;6.53;;;3.92;;
24483;SDS011;12643;51.620;7.548;2023-04-03T15:36:39;2.58;;;1.40;;
24483;SDS011;12643;51.620;7.548;2023-04-03T15:39:07;4.00;;;1.77;;
24483;SDS011;12643;51.620;7.548;2023-04-03T15:41:35;3.70;;;1.45;;
24483;SDS011;12643;51.620;7.548;2023-04-03T15:44:10;4.80;;;1.70;;
24483;SDS011;12643;51.620;7.548;2023-04-03T15:46:38;5.97;;;2.03;;
24483;SDS011;12643;51.620;7.548;2023-04-03T15:49:06;5.43;;;1.85;;
24483;SDS011;12643;51.620;7.548;2023-04-03T15:51:35;5.18;;;1.50;;